Terminal Aerodrome Forecast
Issued by NWS

Home | Current Version | Previous Version | Text Only | Print | Product List | Glossary On
Versions: 1 2 3 4 5 6 7 8 9 10 11 12 13 14 15 16 17 18 19 20
000
FTUS41 KPBZ 071435 AAA
TAFDUJ
TAF AMD
KDUJ 071435Z 0715/0812 23007KT P6SM SCT015 BKN035
      TEMPO 0715/0716 BKN015
     FM071600 22012KT P6SM BKN050
     FM080100 23008KT 4SM TSRA OVC035CB=

USA.gov is the U.S. government's official web portal to all federal, state and local government web resources and services.